Time;durP1;ratioP1;P1;durP2;ratioP2;P2;SDS_P1;SDS_P2;PMS_P1;PMS_P2;Temp;Humidity;BMP_temperature;BMP_pressure;BME280_temperature;BME280_humidity;BME280_pressure;Samples;Min_cycle;Max_cycle;Signal;HPM_P1;HPM_P2
2022/12/15 00:40:07;;;;;;;22.38;13.02;;;;;;;0.72;79.95;98303.16;6147353;23;20187;-83
2022/12/15 00:42:32;;;;;;;25.55;13.55;;;;;;;0.74;79.60;98308.25;6144376;23;20594;-84
2022/12/15 00:44:58;;;;;;;23.80;13.80;;;;;;;0.76;79.69;98309.03;6116396;23;20211;-84
2022/12/15 00:47:24;;;;;;;20.33;13.67;;;;;;;0.73;79.52;98303.97;6144354;23;20600;-83
2022/12/15 01:20:19;;;;;;;23.75;15.40;;;;;;;0.56;79.66;98315.91;6143215;23;20174;-84
2022/12/15 01:22:46;;;;;;;34.08;14.02;;;;;;;0.54;79.69;98322.91;6139154;23;20189;-84
2022/12/15 01:25:13;;;;;;;25.40;12.57;;;;;;;0.56;79.86;98321.06;6142895;23;20199;-85
2022/12/15 01:27:39;;;;;;;23.30;16.38;;;;;;;0.59;79.85;98331.28;6142483;23;20171;-85
2022/12/15 01:30:11;;;;;;;31.87;15.07;;;;;;;0.61;79.82;98328.63;6145678;23;20498;-84
2022/12/15 01:32:37;;;;;;;30.95;15.00;;;;;;;0.61;79.90;98334.63;6147240;23;20185;-84
2022/12/15 01:35:04;;;;;;;23.53;14.23;;;;;;;0.62;79.60;98338.91;6166435;23;20206;-84
2022/12/15 01:37:30;;;;;;;26.90;15.48;;;;;;;0.65;79.78;98335.34;6173249;23;20266;-84
2022/12/15 01:42:39;;;;;;;26.45;14.32;;;;;;;0.72;79.83;98348.84;6174972;23;20176;-84
2022/12/15 01:45:23;;;;;;;26.43;14.70;;;;;;;0.74;79.79;98344.44;6149847;23;20643;-84
2022/12/15 01:48:14;;;;;;;22.23;14.10;;;;;;;0.73;79.18;98343.63;6173175;23;20182;-84
2022/12/15 01:50:44;;;;;;;19.70;12.00;;;;;;;0.72;79.53;98348.84;6157739;23;20636;-84
2022/12/15 01:53:11;;;;;;;28.92;16.02;;;;;;;0.69;79.25;98339.47;6175929;23;20201;-84
2022/12/15 01:55:40;;;;;;;21.92;13.43;;;;;;;0.65;79.47;98349.13;6173955;23;20198;-85
2022/12/15 01:58:07;;;;;;;23.95;13.23;;;;;;;0.64;79.52;98347.41;6175682;23;20205;-84
2022/12/15 02:00:33;;;;;;;30.48;16.65;;;;;;;0.61;79.46;98352.72;6173792;23;20233;-84
2022/12/15 02:03:01;;;;;;;22.60;14.55;;;;;;;0.59;79.54;98351.94;6173547;23;20178;-85
2022/12/15 02:05:28;;;;;;;30.73;17.10;;;;;;;0.59;79.71;98353.69;6174691;23;20193;-85
2022/12/15 02:07:54;;;;;;;23.98;14.00;;;;;;;0.59;79.61;98353.69;6175153;23;20178;-86
2022/12/15 02:10:22;;;;;;;23.83;12.57;;;;;;;0.56;79.48;98357.25;6175535;23;20508;-86
2022/12/15 02:13:19;;;;;;;17.77;12.32;;;;;;;0.56;79.68;98359.81;6170223;23;20438;-85
2022/12/15 02:15:52;;;;;;;20.95;11.95;;;;;;;0.56;79.85;98349.50;6170854;23;20422;-86
2022/12/15 02:18:20;;;;;;;25.02;15.55;;;;;;;0.58;79.74;98352.03;6197041;23;20251;-85
2022/12/15 02:20:51;;;;;;;19.75;14.65;;;;;;;0.59;79.67;98359.69;6179054;23;20170;-84
2022/12/15 02:24:01;;;;;;;26.10;15.25;;;;;;;0.55;79.42;98363.31;6178020;23;20249;-85
2022/12/15 02:26:45;;;;;;;28.40;14.07;;;;;;;0.55;79.65;98362.50;6171711;23;20201;-84
2022/12/15 02:29:45;;;;;;;24.65;12.45;;;;;;;0.52;79.67;98371.22;6179270;23;20224;-85
2022/12/15 02:32:26;;;;;;;24.70;14.52;;;;;;;0.51;79.33;98372.09;6175693;23;20182;-85
2022/12/15 02:35:01;;;;;;;22.50;16.23;;;;;;;0.50;79.66;98373.00;6176462;23;20201;-85
2022/12/15 02:37:31;;;;;;;24.45;12.85;;;;;;;0.52;79.70;98372.97;6175887;23;20186;-85
2022/12/15 02:39:57;;;;;;;24.42;13.35;;;;;;;0.52;79.48;98381.56;6175669;23;20233;-85
2022/12/15 02:42:23;;;;;;;27.63;14.27;;;;;;;0.53;79.27;98374.63;6175633;23;20189;-85
2022/12/15 02:45:07;;;;;;;26.73;16.85;;;;;;;0.53;79.69;98375.47;6171552;23;20427;-85
2022/12/15 02:48:12;;;;;;;29.75;17.02;;;;;;;0.50;79.52;98370.44;6148806;23;20186;-85
2022/12/15 02:50:52;;;;;;;25.17;15.13;;;;;;;0.47;79.52;98374.91;6163749;23;20238;-85
2022/12/15 02:53:46;;;;;;;27.02;15.48;;;;;;;0.41;79.37;98376.00;6173249;23;21034;-85
2022/12/15 02:56:17;;;;;;;24.23;15.73;;;;;;;0.39;79.52;98385.56;6175682;23;20210;-84
2022/12/15 02:59:00;;;;;;;25.80;14.13;;;;;;;0.38;79.67;98386.47;6174875;23;20707;-85
2022/12/15 03:01:31;;;;;;;28.23;15.88;;;;;;;0.37;79.84;98392.53;6176559;23;20190;-85
2022/12/15 03:04:00;;;;;;;30.25;17.55;;;;;;;0.39;79.77;98382.97;6171886;23;20514;-84
2022/12/15 03:06:26;;;;;;;28.98;15.40;;;;;;;0.38;79.75;98386.47;6144904;23;20174;-85
2022/12/15 03:08:51;;;;;;;31.30;17.70;;;;;;;0.39;79.67;98394.13;6174901;23;20178;-84
2022/12/15 03:11:16;;;;;;;28.97;14.83;;;;;;;0.42;79.72;98388.00;6177314;23;20178;-85
2022/12/15 03:13:42;;;;;;;33.20;15.90;;;;;;;0.44;79.57;98396.53;6176696;23;20261;-85
2022/12/15 03:16:08;;;;;;;24.60;14.53;;;;;;;0.44;79.66;98389.63;6173684;23;20203;-86
2022/12/15 03:18:33;;;;;;;23.87;15.83;;;;;;;0.42;79.43;98388.00;6174598;23;20182;-85
2022/12/15 03:20:58;;;;;;;30.67;14.60;;;;;;;0.41;79.67;98391.50;6150308;23;20171;-84
2022/12/15 03:23:24;;;;;;;23.60;14.47;;;;;;;0.39;79.56;98388.13;6175650;23;20209;-84
2022/12/15 03:25:49;;;;;;;27.13;16.60;;;;;;;0.37;79.31;98393.34;6173789;23;20174;-85
2022/12/15 03:28:15;;;;;;;32.77;17.70;;;;;;;0.37;79.40;98397.69;6176404;23;20186;-85
2022/12/15 03:30:40;;;;;;;28.27;15.80;;;;;;;0.36;79.39;98396.00;6174843;23;20209;-83
2022/12/15 03:33:06;;;;;;;39.70;23.77;;;;;;;0.38;79.50;98395.06;6172098;23;20403;-84
2022/12/15 03:35:32;;;;;;;30.03;19.53;;;;;;;0.38;79.83;98396.81;6177107;23;20218;-84
2022/12/15 03:37:58;;;;;;;26.02;15.55;;;;;;;0.41;79.82;98404.41;6174846;23;20427;-83
2022/12/15 03:40:23;;;;;;;32.47;16.30;;;;;;;0.42;79.70;98406.91;6174556;23;20186;-85
2022/12/15 03:42:49;;;;;;;29.10;15.20;;;;;;;0.38;79.66;98399.38;6174549;23;20185;-85
2022/12/15 03:45:24;;;;;;;25.07;17.60;;;;;;;0.35;79.09;98407.22;6173742;23;20201;-86
2022/12/15 03:47:50;;;;;;;29.77;13.55;;;;;;;0.31;79.44;98406.53;6176049;23;20384;-86
2022/12/15 03:50:21;;;;;;;29.17;15.05;;;;;;;0.28;79.33;98409.25;6174605;23;20174;-85
2022/12/15 03:52:51;;;;;;;26.75;15.00;;;;;;;0.27;79.26;98398.97;6174770;23;20176;-85
2022/12/15 03:55:17;;;;;;;24.80;13.85;;;;;;;0.25;79.26;98409.38;6174608;23;20678;-85
2022/12/15 03:57:42;;;;;;;26.00;14.43;;;;;;;0.26;79.53;98410.22;6175445;23;20206;-86
2022/12/15 04:00:13;;;;;;;22.07;14.07;;;;;;;0.26;79.27;98413.63;6172706;23;20645;-85
2022/12/15 04:02:40;;;;;;;31.63;17.05;;;;;;;0.28;79.15;98411.00;6172761;23;20500;-83
2022/12/15 04:05:06;;;;;;;26.45;15.40;;;;;;;0.31;79.17;98406.53;6173056;23;20193;-85
2022/12/15 04:07:31;;;;;;;23.30;14.95;;;;;;;0.33;79.05;98403.91;6170097;23;20215;-85
2022/12/15 04:09:56;;;;;;;31.20;15.23;;;;;;;0.33;78.73;98403.91;6174751;23;20480;-85
2022/12/15 04:12:22;;;;;;;31.53;17.50;;;;;;;0.32;78.90;98413.38;6184103;23;20557;-85
2022/12/15 04:14:47;;;;;;;25.40;15.87;;;;;;;0.32;79.03;98405.63;6171688;23;20210;-85
2022/12/15 04:17:14;;;;;;;24.57;15.77;;;;;;;0.31;78.95;98405.69;6174898;23;20631;-85
2022/12/15 04:22:23;;;;;;;20.60;13.43;;;;;;;0.23;78.80;98424.09;6166197;23;20623;-86
2022/12/15 05:33:15;;;;;;;30.50;17.13;;;;;;;0.04;78.52;98433.47;5997273;23;20179;-84
2022/12/15 05:35:40;;;;;;;47.60;27.60;;;;;;;0.01;78.58;98426.69;6026336;23;20210;-84
2022/12/15 05:38:06;;;;;;;31.27;15.53;;;;;;;0.00;78.66;98435.34;6036972;23;20191;-80
2022/12/15 05:40:31;;;;;;;27.30;15.53;;;;;;;0.01;78.66;98454.25;6050546;23;20196;-84
2022/12/15 05:42:58;;;;;;;27.93;15.10;;;;;;;0.02;78.69;98450.75;6046475;23;20187;-84
2022/12/15 05:45:24;;;;;;;20.85;14.10;;;;;;;0.02;78.74;98450.75;6051207;23;20263;-84
2022/12/15 05:47:51;;;;;;;26.42;15.63;;;;;;;0.03;78.70;98444.69;6028711;23;20209;-85
2022/12/15 05:50:16;;;;;;;32.47;18.65;;;;;;;0.01;78.49;98431.84;6031273;23;20223;-84
2022/12/15 05:52:42;;;;;;;25.30;15.03;;;;;;;-0.04;78.51;98428.63;6116669;23;20238;-85
2022/12/15 05:55:07;;;;;;;26.33;16.90;;;;;;;-0.07;78.45;98421.00;6118347;23;20218;-84
2022/12/15 05:57:33;;;;;;;30.37;17.43;;;;;;;-0.12;78.28;98422.91;6121229;23;20194;-84
2022/12/15 05:59:58;;;;;;;27.87;14.00;;;;;;;-0.14;78.53;98424.72;6112993;23;20423;-84
2022/12/15 06:02:24;;;;;;;37.33;18.03;;;;;;;-0.17;78.60;98424.81;6130272;23;20643;-85
2022/12/15 06:04:49;;;;;;;28.00;15.90;;;;;;;-0.19;78.48;98429.19;6125344;23;20247;-85
2022/12/15 06:07:15;;;;;;;28.07;15.73;;;;;;;-0.19;78.33;98431.78;6126596;23;20183;-85
2022/12/15 06:09:40;;;;;;;32.50;18.63;;;;;;;-0.24;78.53;98422.50;6090575;23;20214;-85
2022/12/15 06:12:05;;;;;;;33.43;15.63;;;;;;;-0.23;78.55;98425.91;6131508;23;20176;-85
2022/12/15 06:14:31;;;;;;;28.80;17.30;;;;;;;-0.26;78.40;98432.03;6117746;23;20732;-85
2022/12/15 06:16:57;;;;;;;38.57;20.87;;;;;;;-0.25;78.71;98428.53;6115054;23;20510;-85
2022/12/15 06:19:22;;;;;;;31.15;18.63;;;;;;;-0.24;78.34;98424.25;6115224;23;20183;-85
2022/12/15 06:21:48;;;;;;;31.50;19.30;;;;;;;-0.25;78.50;98428.53;6116548;23;20179;-85
2022/12/15 06:24:14;;;;;;;28.40;17.87;;;;;;;-0.26;78.59;98432.03;6088879;23;20203;-85
2022/12/15 06:26:39;;;;;;;32.43;19.77;;;;;;;-0.23;78.57;98441.41;6115272;23;20191;-85
2022/12/15 06:29:07;;;;;;;35.23;20.10;;;;;;;-0.23;78.22;98431.91;6115700;23;20176;-85
2022/12/15 06:31:34;;;;;;;32.92;16.88;;;;;;;-0.21;78.38;98437.03;6116676;23;20179;-85
2022/12/15 06:36:54;;;;;;;25.60;16.13;;;;;;;-0.17;78.54;98440.31;6038575;23;20640;-85
2022/12/15 06:39:20;;;;;;;21.93;16.23;;;;;;;-0.15;78.32;98441.09;6045916;23;20182;-85
2022/12/15 06:41:45;;;;;;;34.13;16.40;;;;;;;-0.15;78.15;98441.94;6056085;23;20319;-85
2022/12/15 06:44:14;;;;;;;30.67;18.50;;;;;;;-0.18;77.84;98444.63;6055413;23;20770;-85
2022/12/15 06:46:40;;;;;;;31.42;16.90;;;;;;;-0.19;78.18;98452.44;6053244;23;20215;-85
2022/12/15 06:49:07;;;;;;;34.60;17.30;;;;;;;-0.21;77.90;98442.19;6052553;23;20667;-85
2022/12/15 06:51:32;;;;;;;28.65;16.08;;;;;;;-0.23;78.29;98447.38;6052755;23;20187;-85
2022/12/15 06:53:57;;;;;;;31.10;17.13;;;;;;;-0.23;78.18;98449.13;6057267;23;20516;-85
2022/12/15 06:56:42;;;;;;;30.60;16.63;;;;;;;-0.23;78.11;98447.38;6031567;23;20239;-85
2022/12/15 06:59:10;;;;;;;35.53;17.80;;;;;;;-0.22;78.40;98448.22;6055143;23;20180;-85
2022/12/15 07:01:35;;;;;;;30.00;17.27;;;;;;;-0.23;78.06;98442.22;6054443;23;20237;-85
2022/12/15 07:04:03;;;;;;;28.40;15.63;;;;;;;-0.25;78.00;98453.50;6056610;23;20522;-84
2022/12/15 07:06:35;;;;;;;25.40;15.63;;;;;;;-0.27;77.86;98455.31;6057608;23;20287;-85
2022/12/15 07:09:00;;;;;;;35.17;19.15;;;;;;;-0.28;78.08;98454.47;6056237;23;21143;-84
2022/12/15 07:11:26;;;;;;;30.90;19.17;;;;;;;-0.29;78.26;98467.44;6056956;23;20210;-84
2022/12/15 07:13:52;;;;;;;31.57;19.07;;;;;;;-0.30;78.12;98469.19;6055589;23;20528;-85
2022/12/15 07:16:19;;;;;;;42.00;19.07;;;;;;;-0.32;78.20;98462.41;6055562;23;20205;-85
2022/12/15 07:18:44;;;;;;;27.23;17.17;;;;;;;-0.32;78.29;98464.97;6057262;23;20411;-86
2022/12/15 07:21:10;;;;;;;40.70;20.83;;;;;;;-0.34;78.28;98454.72;6057679;23;20177;-85
2022/12/15 07:23:36;;;;;;;32.83;20.40;;;;;;;-0.34;78.14;98453.88;6056872;23;20184;-85
2022/12/15 07:26:07;;;;;;;33.45;19.63;;;;;;;-0.35;78.26;98458.19;6057295;23;20193;-85
2022/12/15 07:28:34;;;;;;;36.20;20.70;;;;;;;-0.35;78.24;98470.22;6056845;23;20176;-85
2022/12/15 07:31:05;;;;;;;35.35;18.45;;;;;;;-0.33;78.33;98487.34;6054287;23;20769;-86
2022/12/15 07:33:31;;;;;;;41.38;19.38;;;;;;;-0.31;78.35;98498.44;6055525;23;20224;-85
2022/12/15 07:36:02;;;;;;;37.75;19.48;;;;;;;-0.27;78.26;98494.00;6096741;23;20724;-85
2022/12/15 07:38:29;;;;;;;30.40;17.02;;;;;;;-0.27;78.26;98494.88;6108994;23;20191;-86
2022/12/15 07:40:54;;;;;;;39.67;19.92;;;;;;;-0.25;78.28;98492.22;6107697;23;20187;-86
2022/12/15 07:43:23;;;;;;;38.90;19.40;;;;;;;-0.23;78.10;98483.53;6106293;23;20218;-86
2022/12/15 07:45:52;;;;;;;44.97;19.98;;;;;;;-0.23;78.28;98487.84;6106923;23;20598;-86
2022/12/15 07:48:18;;;;;;;40.17;19.73;;;;;;;-0.21;78.08;98498.97;6103992;23;20184;-86
2022/12/15 07:50:44;;;;;;;34.85;19.05;;;;;;;-0.19;78.22;98504.03;6108189;23;20685;-85
2022/12/15 07:53:10;;;;;;;36.17;18.33;;;;;;;-0.17;78.16;98500.50;6107696;23;20267;-84
2022/12/15 07:55:35;;;;;;;31.73;17.50;;;;;;;-0.14;78.04;98509.88;6107697;23;20299;-87
2022/12/15 07:58:01;;;;;;;40.53;19.50;;;;;;;-0.14;77.98;98509.88;6107699;23;20691;-86
2022/12/15 08:00:27;;;;;;;25.57;17.87;;;;;;;-0.14;78.20;98494.38;6107262;23;20194;-86
2022/12/15 08:02:52;;;;;;;25.58;14.20;;;;;;;-0.11;78.01;98507.19;6107982;23;20176;-86
2022/12/15 08:05:18;;;;;;;35.63;17.17;;;;;;;-0.13;77.97;98504.66;6107779;23;20203;-85
2022/12/15 08:07:43;;;;;;;30.10;17.30;;;;;;;-0.12;77.89;98514.09;6106350;23;20254;-84
2022/12/15 08:10:08;;;;;;;38.20;18.17;;;;;;;-0.10;77.83;98512.28;6106333;23;20180;-85
2022/12/15 08:12:34;;;;;;;34.60;19.43;;;;;;;-0.07;77.88;98509.59;6108581;23;20184;-85
2022/12/15 08:14:59;;;;;;;33.00;20.13;;;;;;;-0.06;77.45;98506.09;6105672;23;20204;-85
2022/12/15 08:17:25;;;;;;;38.70;19.77;;;;;;;-0.10;77.64;98514.88;6107761;23;20183;-85
2022/12/15 08:19:50;;;;;;;38.40;21.10;;;;;;;-0.10;77.86;98508.88;6103732;23;20164;-86
2022/12/15 08:22:16;;;;;;;39.72;19.67;;;;;;;-0.09;77.99;98513.97;6105928;23;20258;-86
2022/12/15 08:24:41;;;;;;;33.43;18.50;;;;;;;-0.08;77.93;98509.63;6107187;23;20187;-86
2022/12/15 08:27:07;;;;;;;36.53;20.10;;;;;;;-0.09;77.59;98510.53;6106814;23;20182;-85
2022/12/15 08:29:33;;;;;;;39.73;20.10;;;;;;;-0.08;77.90;98507.91;6106861;23;20514;-85
2022/12/15 08:31:59;;;;;;;39.00;19.00;;;;;;;-0.06;77.75;98502.69;6117987;23;20597;-85
2022/12/15 08:34:25;;;;;;;43.70;26.20;;;;;;;-0.01;77.84;98511.94;6079802;23;20412;-86
2022/12/15 08:36:51;;;;;;;35.13;19.40;;;;;;;0.02;77.60;98523.88;6105288;23;20188;-85
2022/12/15 08:39:16;;;;;;;36.10;19.90;;;;;;;0.03;77.79;98524.72;6107703;23;20184;-86
2022/12/15 08:41:42;;;;;;;34.13;19.10;;;;;;;0.05;77.81;98515.19;6108119;23;20418;-86
2022/12/15 08:44:07;;;;;;;40.17;21.80;;;;;;;0.07;77.52;98521.13;6104843;23;20413;-85
2022/12/15 08:46:33;;;;;;;34.60;22.97;;;;;;;0.08;77.65;98523.66;6105359;23;20518;-85
2022/12/15 08:49:00;;;;;;;33.00;17.67;;;;;;;0.09;77.62;98525.34;6108854;23;20242;-86
2022/12/15 08:51:28;;;;;;;33.40;19.58;;;;;;;0.11;77.31;98526.13;6106075;23;20659;-85
2022/12/15 08:53:55;;;;;;;32.42;19.70;;;;;;;0.10;77.42;98527.00;6078710;23;20570;-85
2022/12/15 08:56:23;;;;;;;35.47;19.17;;;;;;;0.09;77.27;98535.66;6106728;23;20764;-86
2022/12/15 08:58:53;;;;;;;29.40;16.10;;;;;;;0.09;77.08;98540.81;2084427;23;10002003;-85
2022/12/15 09:01:21;;;;;;;35.00;20.42;;;;;;;0.10;77.17;98542.50;6078351;23;20294;-86
2022/12/15 09:03:47;;;;;;;33.67;17.85;;;;;;;0.11;77.34;98543.34;6081961;23;20586;-86
2022/12/15 09:06:18;;;;;;;31.07;18.90;;;;;;;0.14;77.15;98549.25;6109744;23;20199;-85
2022/12/15 09:08:43;;;;;;;27.67;16.70;;;;;;;0.15;77.07;98532.84;6131291;23;20269;-86
2022/12/15 09:11:09;;;;;;;34.10;18.23;;;;;;;0.16;77.27;98524.22;6136360;23;20178;-85
2022/12/15 09:13:35;;;;;;;35.30;19.97;;;;;;;0.17;77.06;98518.13;6143273;23;20190;-86
2022/12/15 09:16:06;;;;;;;43.17;19.53;;;;;;;0.20;77.07;98512.00;6134504;23;20736;-85
2022/12/15 09:18:32;;;;;;;30.42;19.25;;;;;;;0.24;76.97;98502.38;6135553;23;20171;-86
2022/12/15 09:21:03;;;;;;;31.58;18.75;;;;;;;0.24;76.90;98500.66;6133287;23;20520;-85
2022/12/15 09:23:29;;;;;;;32.55;18.65;;;;;;;0.29;76.77;98508.22;6137318;23;20589;-86
2022/12/15 09:26:06;;;;;;;41.70;20.00;;;;;;;0.33;76.88;98502.03;6134226;23;20650;-86
2022/12/15 09:28:32;;;;;;;39.33;20.67;;;;;;;0.35;76.63;98495.06;6133638;23;20269;-85
2022/12/15 09:31:02;;;;;;;31.90;17.33;;;;;;;0.38;76.51;98505.28;6131848;23;20277;-86
2022/12/15 09:33:28;;;;;;;36.13;18.65;;;;;;;0.40;76.68;98501.72;6137317;23;21093;-86
2022/12/15 09:35:53;;;;;;;37.43;18.10;;;;;;;0.43;76.29;98514.53;6131385;23;20289;-85
2022/12/15 09:38:19;;;;;;;38.83;20.17;;;;;;;0.44;76.35;98507.63;6137858;23;20192;-86
2022/12/15 09:40:44;;;;;;;41.03;21.33;;;;;;;0.42;76.28;98519.75;6137863;23;20261;-85
2022/12/15 09:43:16;;;;;;;40.50;21.13;;;;;;;0.36;76.29;98526.00;6132678;23;20253;-83
2022/12/15 09:45:47;;;;;;;40.00;21.65;;;;;;;0.31;76.34;98521.91;6134842;23;20206;-86
2022/12/15 09:48:18;;;;;;;37.53;20.13;;;;;;;0.27;76.57;98523.78;6137467;23;20183;-85
2022/12/15 09:50:49;;;;;;;32.70;16.10;;;;;;;0.22;76.50;98521.38;6138025;23;20518;-85
2022/12/15 09:53:17;;;;;;;41.50;19.90;;;;;;;0.20;76.73;98525.75;6135900;23;20192;-85
2022/12/15 09:55:48;;;;;;;32.95;19.77;;;;;;;0.19;76.75;98526.66;6132312;23;20290;-85
2022/12/15 09:58:28;;;;;;;33.22;20.23;;;;;;;0.17;76.81;98522.47;6135952;23;20179;-85
2022/12/15 10:01:10;;;;;;;38.65;21.23;;;;;;;0.15;77.05;98522.50;6135310;23;20307;-85
2022/12/15 10:03:51;;;;;;;34.75;21.88;;;;;;;0.16;76.96;98552.63;6134932;23;20502;-85
2022/12/15 10:06:20;;;;;;;33.90;19.27;;;;;;;0.17;76.80;98566.38;6135736;23;20565;-85
2022/12/15 10:09:01;;;;;;;33.33;20.40;;;;;;;0.18;76.76;98576.63;6148532;23;20699;-85
2022/12/15 10:11:50;;;;;;;33.13;16.92;;;;;;;0.18;76.89;98571.44;6166038;23;20614;-85
2022/12/15 10:14:36;;;;;;;41.72;24.67;;;;;;;0.18;76.69;98550.78;6164264;23;20202;-85
2022/12/15 10:17:13;;;;;;;50.92;24.85;;;;;;;0.18;76.89;98548.22;6140053;23;20190;-85
2022/12/15 10:19:48;;;;;;;38.13;23.48;;;;;;;0.18;76.62;98555.97;6167453;23;20174;-85
2022/12/15 10:22:22;;;;;;;38.15;21.38;;;;;;;0.19;76.70;98551.66;6167535;23;20214;-85
2022/12/15 10:24:47;;;;;;;48.88;23.60;;;;;;;0.20;76.73;98538.66;6165266;23;20205;-85
2022/12/15 10:27:16;;;;;;;31.97;21.30;;;;;;;0.21;76.65;98534.34;6141897;23;20181;-85
2022/12/15 10:29:50;;;;;;;41.42;25.27;;;;;;;0.23;76.96;98527.38;6169690;23;20186;-86
2022/12/15 10:32:19;;;;;;;31.20;19.20;;;;;;;0.26;76.90;98531.59;6167646;23;20179;-85
2022/12/15 10:34:44;;;;;;;49.03;30.30;;;;;;;0.29;76.63;98537.47;6164228;23;20510;-85
2022/12/15 10:37:17;;;;;;;36.13;22.20;;;;;;;0.30;76.80;98522.81;6140618;23;20183;-85
2022/12/15 10:39:45;;;;;;;39.20;21.85;;;;;;;0.31;76.85;98514.16;6139806;23;20471;-86
2022/12/15 10:42:20;;;;;;;49.97;25.90;;;;;;;0.29;76.90;98493.56;6165826;23;20179;-85
2022/12/15 10:44:49;;;;;;;40.35;20.88;;;;;;;0.34;76.85;98480.47;6167044;23;20201;-85
2022/12/15 10:47:20;;;;;;;38.42;22.70;;;;;;;0.33;76.57;98471.06;6164812;23;20170;-85
2022/12/15 10:49:46;;;;;;;44.05;24.15;;;;;;;0.33;76.40;98461.56;6166967;23;20178;-85
2022/12/15 10:52:18;;;;;;;51.97;25.67;;;;;;;0.34;76.45;98457.22;6166509;23;20691;-84
2022/12/15 10:54:47;;;;;;;42.38;23.83;;;;;;;0.37;76.41;98457.09;6138954;23;20467;-86
2022/12/15 10:57:26;;;;;;;42.53;21.90;;;;;;;0.40;76.40;98455.22;6164503;23;20185;-85
2022/12/15 10:59:53;;;;;;;59.30;22.30;;;;;;;0.42;76.42;98450.00;6167786;23;20171;-85
2022/12/15 11:02:19;;;;;;;35.10;20.33;;;;;;;0.41;75.92;98440.59;6167668;23;20174;-85
2022/12/15 11:04:55;;;;;;;42.57;21.70;;;;;;;0.42;76.20;98432.75;6164660;23;20202;-85
2022/12/15 11:07:22;;;;;;;45.80;22.20;;;;;;;0.40;76.30;98420.81;6117289;23;20181;-85
2022/12/15 11:09:48;;;;;;;41.25;21.40;;;;;;;0.41;76.16;98415.59;6141247;23;20210;-84
2022/12/15 11:15:23;;;;;;;37.58;20.75;;;;;;;0.52;76.28;98409.97;6167562;23;20201;-85
2022/12/15 11:17:58;;;;;;;43.05;19.55;;;;;;;0.56;75.81;98401.16;6140498;23;20194;-85
2022/12/15 11:20:36;;;;;;;51.72;23.38;;;;;;;0.60;75.69;98400.16;6142553;23;20260;-85
2022/12/15 11:23:20;;;;;;;36.40;20.02;;;;;;;0.65;75.62;98405.13;6169993;23;20252;-85
2022/12/15 11:25:54;;;;;;;43.80;20.98;;;;;;;0.77;75.73;98396.00;6169310;23;20657;-85
2022/12/15 11:28:33;;;;;;;31.75;18.55;;;;;;;0.90;75.65;98402.31;6166717;23;20648;-85
2022/12/15 11:31:11;;;;;;;54.75;25.33;;;;;;;0.99;75.25;98401.91;6172303;23;20194;-85
2022/12/15 11:33:38;;;;;;;47.58;23.63;;;;;;;1.05;75.20;98404.25;6165967;23;20401;-85
2022/12/15 11:36:08;;;;;;;39.67;19.42;;;;;;;1.11;75.02;98392.78;6168420;23;20206;-85
2022/12/15 11:38:43;;;;;;;40.17;20.27;;;;;;;1.20;74.90;98401.88;6168079;23;20257;-85
2022/12/15 11:41:55;;;;;;;38.00;20.70;;;;;;;1.19;74.81;98389.81;6142840;23;20210;-85
2022/12/15 11:44:28;;;;;;;38.58;19.40;;;;;;;1.17;74.84;98387.31;6126902;23;20207;-85
2022/12/15 11:47:26;;;;;;;35.42;19.95;;;;;;;1.17;74.80;98389.06;6148945;23;20208;-85
2022/12/15 11:50:15;;;;;;;34.70;19.52;;;;;;;1.19;74.73;98385.50;6175507;23;20182;-85
2022/12/15 11:53:07;;;;;;;33.97;17.90;;;;;;;1.16;74.63;98380.47;6183640;23;20188;-85
2022/12/15 11:55:41;;;;;;;32.00;17.85;;;;;;;1.15;74.48;98389.13;6184465;23;20532;-84
2022/12/15 11:58:34;;;;;;;32.20;17.90;;;;;;;1.14;74.73;98376.28;6179907;23;20182;-85
2022/12/15 12:01:08;;;;;;;42.15;21.15;;;;;;;1.09;74.55;98369.56;6179788;23;20183;-85
2022/12/15 12:03:52;;;;;;;42.13;22.48;;;;;;;0.99;74.91;98363.13;6147778;23;20402;-85
2022/12/15 12:06:41;;;;;;;38.40;20.05;;;;;;;0.95;75.11;98366.75;6178200;23;20198;-85
2022/12/15 12:09:25;;;;;;;38.83;21.13;;;;;;;0.89;75.28;98356.66;6179909;23;20206;-85
2022/12/15 12:12:15;;;;;;;35.40;19.25;;;;;;;0.84;75.41;98358.66;6177834;23;20185;-84
2022/12/15 12:15:14;;;;;;;35.83;19.38;;;;;;;0.80;75.50;98350.16;6166533;23;20201;-85
2022/12/15 12:17:44;;;;;;;38.22;19.77;;;;;;;0.77;75.60;98357.22;6163810;23;20178;-84
2022/12/15 12:20:25;;;;;;;43.92;20.55;;;;;;;0.75;75.56;98348.69;6164287;23;20256;-84
2022/12/15 12:23:05;;;;;;;47.45;20.13;;;;;;;0.75;75.46;98348.69;6164810;23;20178;-84
2022/12/15 12:25:40;;;;;;;38.58;20.45;;;;;;;0.76;75.67;98334.88;6167468;23;20226;-84
2022/12/15 12:28:15;;;;;;;43.58;23.08;;;;;;;0.76;75.67;98327.13;6165158;23;20178;-84
2022/12/15 12:30:45;;;;;;;39.58;22.30;;;;;;;0.76;75.79;98324.56;6166966;23;20324;-84
2022/12/15 12:33:41;;;;;;;37.85;20.85;;;;;;;0.72;75.67;98310.91;6146578;23;20461;-84
2022/12/15 12:36:12;;;;;;;37.53;22.67;;;;;;;0.75;75.79;98303.00;6155975;23;20225;-81
2022/12/15 12:38:45;;;;;;;46.03;22.80;;;;;;;0.76;75.73;98301.28;6151575;23;20652;-82
2022/12/15 12:41:25;;;;;;;35.97;19.30;;;;;;;0.74;75.86;98303.94;6167518;23;20174;-81
2022/12/15 12:43:57;;;;;;;44.40;23.02;;;;;;;0.75;75.77;98307.34;6144850;23;20178;-81
2022/12/15 12:46:24;;;;;;;38.85;20.50;;;;;;;0.72;75.52;98303.16;6170603;23;20202;-82
2022/12/15 12:48:55;;;;;;;35.25;18.67;;;;;;;0.71;75.98;98293.72;6169530;23;20193;-82
2022/12/15 12:51:32;;;;;;;44.78;21.50;;;;;;;0.71;75.93;98293.72;6173104;23;20171;-81
2022/12/15 12:53:59;;;;;;;37.97;21.08;;;;;;;0.70;75.86;98288.63;6172366;23;20285;-81
2022/12/15 12:56:33;;;;;;;39.80;22.42;;;;;;;0.70;75.85;98293.78;6172754;23;20230;-82
2022/12/15 12:58:59;;;;;;;38.67;20.35;;;;;;;0.68;76.15;98282.69;6175731;23;20185;-82
2022/12/15 13:01:33;;;;;;;42.80;20.37;;;;;;;0.66;75.91;98278.41;6170374;23;20254;-83
2022/12/15 13:04:32;;;;;;;46.63;22.75;;;;;;;0.66;76.20;98277.59;6167352;23;20436;-82
2022/12/15 13:07:04;;;;;;;41.47;20.70;;;;;;;0.66;76.25;98268.09;6168705;23;20252;-82
2022/12/15 13:09:42;;;;;;;45.92;22.52;;;;;;;0.66;75.96;98262.09;6168370;23;20261;-82
2022/12/15 13:12:35;;;;;;;55.17;22.65;;;;;;;0.65;76.16;98250.09;6166341;23;20189;-82
2022/12/15 13:15:28;;;;;;;35.53;18.70;;;;;;;0.64;76.18;98244.06;6169021;23;20297;-82
2022/12/15 13:18:01;;;;;;;38.88;22.75;;;;;;;0.69;76.18;98245.59;6140510;23;20229;-82
2022/12/15 13:20:30;;;;;;;36.20;21.33;;;;;;;0.75;76.48;98246.16;6170393;23;20182;-82
2022/12/15 13:23:15;;;;;;;52.08;24.40;;;;;;;0.82;76.37;98246.72;6170100;23;20539;-82
2022/12/15 13:26:02;;;;;;;49.67;22.88;;;;;;;0.88;75.98;98246.44;6168587;23;20518;-81
2022/12/15 13:28:33;;;;;;;38.03;21.05;;;;;;;0.88;76.00;98246.44;6154141;23;20269;-81
2022/12/15 13:31:17;;;;;;;40.95;22.27;;;;;;;0.86;75.93;98237.91;6168577;23;20468;-81
2022/12/15 13:34:19;;;;;;;48.80;23.92;;;;;;;0.84;76.05;98237.16;6145086;23;20236;-81
2022/12/15 13:36:47;;;;;;;44.45;22.77;;;;;;;0.84;76.22;98240.56;6164825;23;20424;-81
2022/12/15 13:39:16;;;;;;;33.22;20.50;;;;;;;0.87;76.22;98239.59;6162585;23;20184;-84
2022/12/15 13:41:47;;;;;;;36.53;21.65;;;;;;;0.86;76.18;98233.59;6167656;23;20178;-84
2022/12/15 13:44:35;;;;;;;41.28;21.98;;;;;;;0.82;76.24;98228.63;6167611;23;20186;-85
2022/12/15 13:47:15;;;;;;;38.60;21.63;;;;;;;0.79;76.35;98231.34;6166323;23;20193;-85
2022/12/15 13:49:53;;;;;;;48.67;26.40;;;;;;;0.73;76.60;98222.16;6166695;23;20684;-85
2022/12/15 13:52:48;;;;;;;48.58;23.45;;;;;;;0.68;76.56;98224.09;6167212;23;20201;-86
2022/12/15 13:55:18;;;;;;;50.10;24.98;;;;;;;0.63;76.91;98216.53;6166480;23;20465;-85
2022/12/15 13:57:54;;;;;;;58.88;25.85;;;;;;;0.59;76.69;98222.75;6166869;23;20193;-85
2022/12/15 14:00:20;;;;;;;54.88;25.60;;;;;;;0.56;77.07;98219.47;6164047;23;20589;-85
2022/12/15 14:02:45;;;;;;;47.53;25.70;;;;;;;0.54;76.89;98227.31;6167030;23;20174;-85
2022/12/15 14:05:11;;;;;;;75.47;39.97;;;;;;;0.53;77.16;98233.38;6168969;23;20956;-86
2022/12/15 14:07:38;;;;;;;61.27;29.73;;;;;;;0.48;77.72;98235.31;6167426;23;20471;-86
2022/12/15 14:10:14;;;;;;;54.05;28.38;;;;;;;0.45;77.59;98232.88;6169437;23;20276;-85
2022/12/15 14:12:40;;;;;;;54.60;27.92;;;;;;;0.43;77.78;98229.50;6171168;23;20182;-85